17. August 2022

Uhrzeit Code Wetter Temp. Sichtweite Wolkendecke Wind METAR/SPECI
15:00
V
25 °C 10 km+ - Var Var 5 kt METAR LFSL 171300Z AUTO VRB05KT 9999 FEW039 25/14 Q1011 TEMPO 4000 SHRA BKN035TCU
14:30
V
24 °C 10 km+ 4.200 ft Var Var 4 kt METAR LFSL 171230Z AUTO VRB04KT 9999 FEW036 BKN042 BKN056 24/14 Q1012 TEMPO 4000 SHRA BKN035TCU
14:00
V
24 °C 10 km+ - Var Var 3 kt METAR LFSL 171200Z AUTO VRB03KT CAVOK 24/14 Q1012 TEMPO 4000 SHRA BKN035TCU
13:30
V
23 °C 10 km+ 6.000 ft 230° 230° 4 kt METAR LFSL 171130Z AUTO 23004KT 140V300 9999 SCT029 SCT034 BKN060 23/14 Q1012 TEMPO 4000 SHRA BKN035TCU
13:00
M
22 °C 10 km+ 2.700 ft 280° 280° 4 kt METAR LFSL 171100Z AUTO 28004KT 210V320 9999 BKN027 OVC054 22/15 Q1012 TEMPO 4000 SHRA BKN035TCU
12:30
V
22 °C 10 km+ 5.600 ft 320° 320° 4 kt METAR LFSL 171030Z AUTO 32004KT 240V360 9999 SCT024 SCT031 OVC056 22/16 Q1012 TEMPO 4000 SHRA BKN035TCU
12:00
V
21 °C 10 km+ - Var Var 2 kt METAR LFSL 171000Z AUTO VRB02KT CAVOK 21/16 Q1012 TEMPO 4000 SHRA BKN035TCU
11:30
V
21 °C 10 km+ 5.600 ft Var Var 3 kt METAR LFSL 170930Z AUTO VRB03KT 9999 FEW016 OVC056 21/15 Q1012 TEMPO 4000 SHRA BKN035TCU
11:00
V
20 °C 10 km+ 5.800 ft 270° 270° 5 kt METAR LFSL 170900Z AUTO 27005KT 190V320 9999 SCT015 BKN058 BKN100 20/16 Q1012 TEMPO 4000 SHRA BKN035TCU
10:30
I
19 °C 10 km+ 700 ft 210° 210° 3 kt METAR LFSL 170830Z AUTO 21003KT 160V280 9999 BKN007 BKN056 19/16 Q1012 TEMPO 4000 SHRA BKN014 BKN035TCU
10:00
V
18 °C 10 km+ - 150° 150° 3 kt METAR LFSL 170800Z AUTO 15003KT 110V210 9999 FEW005 SCT060 18/16 Q1012 TEMPO 4000 SHRA BKN014 BKN035TCU
09:30
L
16 °C 10 km+ 300 ft 170° 170° 5 kt METAR LFSL 170730Z AUTO 17005KT 120V230 9999 BKN003 BKN060 16/16 Q1012 TEMPO 4000 SHRA BKN014 BKN035TCU
09:00
L
16 °C 10 km+ - 160° 160° 5 kt METAR LFSL 170700Z AUTO 16005KT 130V200 9999 VV/// 16/16 Q1012 TEMPO 1200 BR BECMG NSC
08:30
L
16 °C 900 m - 140° 140° 4 kt METAR LFSL 170630Z AUTO 14004KT 110V190 0900 R29/1300U FG VV/// 16/15 Q1012 BECMG CAVOK
08:00
L
15 °C 1,6 km - Var Var 3 kt METAR LFSL 170600Z AUTO VRB03KT 1600 BR VV/// 15/15 Q1011 BECMG CAVOK
07:30
L
15 °C 8 km - Var Var 2 kt METAR LFSL 170530Z AUTO VRB02KT 8000 VV/// 15/15 Q1011 TEMPO 4000 SHRA BKN015 BKN060TCU
07:00
L
15 °C 450 m - Var Var 3 kt METAR LFSL 170500Z AUTO VRB03KT 0500 0450 R29/0550N FG VV/// 15/15 Q1011 TEMPO 4000 SHRA BKN015 BKN060TCU
06:30
L
15 °C 2 km - Var Var 2 kt METAR LFSL 170430Z AUTO VRB02KT 9999 2000 VV/// 15/14 Q1011 TEMPO 4000 SHRA BKN015 BKN060TCU
06:00
V
15 °C 10 km+ 7.400 ft 200° 200° 3 kt METAR LFSL 170400Z AUTO 20003KT 160V230 9999 FEW002 BKN074 15/14 Q1010 TEMPO 4000 SHRA BKN015 BKN060TCU
05:30
V
14 °C 10 km+ - Var Var 2 kt METAR LFSL 170330Z AUTO VRB02KT CAVOK 14/14 Q1010 TEMPO 4000 SHRA BKN015 BKN060TCU
05:00
V
15 °C 10 km+ - Var Var 2 kt METAR LFSL 170300Z AUTO VRB02KT CAVOK 15/14 Q1010
04:30
V
15 °C 10 km+ - Var Var 2 kt METAR LFSL 170230Z AUTO VRB02KT CAVOK 15/14 Q1010
04:00
V
16 °C 10 km+ 14.000 ft Var Var 1 kt METAR LFSL 170200Z AUTO VRB01KT 9999 FEW003 BKN140 BKN190 16/15 Q1010
03:30
V
16 °C 10 km+ 10.000 ft Var Var 3 kt METAR LFSL 170130Z AUTO VRB03KT 9999 -RA FEW003/// OVC100/// ///CB 16/15 Q1011
03:00
V
16 °C 8 km - Var Var 5 kt METAR LFSL 170100Z AUTO VRB05KT 8000 RA //////CB 16/15 Q1011
02:30
M
17 °C 6 km 9.400 ft 280° 280° 10 kt METAR LFSL 170030Z AUTO 28010KT 250V310 6000 +RA VCTS FEW010/// BKN094/// OVC110/// ///CB 17/15 Q1012
02:00
M
18 °C 5 km 6.400 ft 260° 260° 7 kt METAR LFSL 170000Z AUTO 26007KT 210V300 5000 TSRA BR SCT018/// BKN064/// BKN092/// //////CB 18/17 Q1012
01:30
V
18 °C 10 km+ - 300° 300° 7 kt METAR LFSL 162330Z AUTO 30007KT 270V330 9999 VCTS ///CB 18/17 Q1010
01:00
V
18 °C 10 km+ - 300° 300° 4 kt METAR LFSL 162300Z AUTO 30004KT 270V340 9999 ///CB 18/16 Q1010
00:30
V
17 °C 10 km+ - Var 000° 0 kt METAR LFSL 162230Z AUTO 00000KT 9999 //////CB 17/16 Q1009
00:00
V
18 °C 10 km+ - Var Var 1 kt METAR LFSL 162200Z AUTO VRB01KT CAVOK 18/16 Q1009

16. August 2022

Uhrzeit Code Wetter Temp. Sichtweite Wolkendecke Wind METAR/SPECI
23:30
V
19 °C 10 km+ - 050° 050° 3 kt METAR LFSL 162130Z AUTO 05003KT 030V090 CAVOK 19/17 Q1009
23:00
V
19 °C 10 km+ - Var 000° 0 kt METAR LFSL 162100Z AUTO 00000KT 9999 //////TCU 19/17 Q1011
22:30
V
20 °C 10 km+ - Var Var 2 kt METAR LFSL 162030Z AUTO VRB02KT 9999 //////CB 20/17 Q1010
22:00
V
20 °C 10 km+ - 150° 150° 3 kt METAR LFSL 162000Z AUTO 15003KT 100V190 9999 -RA ///CB 20/16 Q1010 TEMPO VRB15G30KT 2500 TSRA
21:30
V
21 °C 10 km+ - 150° 150° 4 kt METAR LFSL 161930Z AUTO 15004KT 110V190 9999 //////CB 21/16 Q1010 TEMPO VRB15G30KT 2500 TSRA
21:00
V
21 °C 10 km+ - Var Var 3 kt METAR LFSL 161900Z AUTO VRB03KT CAVOK 21/16 Q1009 TEMPO VRB15G30KT 2500 TSRA BKN030CB
20:30
V
22 °C 10 km+ - 120° 120° 4 kt METAR LFSL 161830Z AUTO 12004KT CAVOK 22/16 Q1009 TEMPO VRB15G30KT 2500 TSRA BKN030CB
20:00
V
22 °C 10 km+ 10.000 ft Var Var 2 kt METAR LFSL 161800Z AUTO VRB02KT 9999 FEW033/// BKN100/// //////TCU 22/16 Q1009 TEMPO VRB15G30KT 2500 TSRA BKN030CB
19:30
V
22 °C 10 km+ 11.000 ft 120° 120° 4 kt METAR LFSL 161730Z AUTO 12004KT 100V190 9999 FEW038/// SCT094/// BKN110/// //////CB 22/17 Q1009 TEMPO VRB15G30KT 2500 TSRA
19:00
V
22 °C 10 km+ 9.400 ft 320° 320° 6 kt METAR LFSL 161700Z AUTO 32006KT 250V340 9999 -RA FEW033/// BKN094/// BKN110/// //////CB 22/17 Q1009 TEMPO VRB15G30KT 2500 TSRA
18:30
V
25 °C 10 km+ - 290° 290° 8 kt METAR LFSL 161630Z AUTO 29008KT 250V320 9999 //////CB 25/15 Q1009 TEMPO VRB15G30KT 2500 TSRA
18:00
V
25 °C 10 km+ - 310° 310° 8 kt METAR LFSL 161600Z AUTO 31008KT 9999 //////CB 25/14 Q1008 TEMPO VRB15G30KT 2500 TSRA
17:30
V
26 °C 10 km+ - 340° 340° 12 kt METAR LFSL 161530Z AUTO 34012KT CAVOK 26/14 Q1008 TEMPO VRB15G30KT 2500 TSRA BKN030CB
17:00
V
26 °C 10 km+ - 320° 320° 12 kt METAR LFSL 161500Z AUTO 32012KT CAVOK 26/14 Q1008 TEMPO VRB15G30KT 2500 TSRA BKN030CB
16:30
V
26 °C 10 km+ - 300° 300° 11 kt METAR LFSL 161430Z AUTO 30011KT CAVOK 26/16 Q1008 TEMPO VRB15G25KT 2500 TSRA BKN040CB
16:00
V
26 °C 10 km+ - 310° 310° 12 kt METAR LFSL 161400Z AUTO 31012KT CAVOK 26/16 Q1008 TEMPO VRB15G25KT 2500 TSRA BKN040CB
15:30
V
27 °C 10 km+ - 320° 320° 10 kt METAR LFSL 161330Z AUTO 32010KT 280V350 CAVOK 27/15 Q1008 TEMPO VRB15G25KT 2500 TSRA BKN040CB
15:00
V
27 °C 10 km+ - 320° 320° 5 kt METAR LFSL 161300Z AUTO 32005KT 270V360 CAVOK 27/15 Q1008 TEMPO VRB15G25KT 2500 TSRA BKN040CB
14:30
V
26 °C 10 km+ - 320° 320° 4 kt METAR LFSL 161230Z AUTO 32004KT 290V360 CAVOK 26/14 Q1008 TEMPO VRB15G25KT 2500 TSRA BKN040CB
14:00
V
26 °C 10 km+ - 330° 330° 4 kt METAR LFSL 161200Z AUTO 33004KT 280V010 CAVOK 26/16 Q1008 TEMPO VRB15G25KT 2500 TSRA BKN040CB
13:30
V
25 °C 10 km+ - 360° 360° 4 kt METAR LFSL 161130Z AUTO 36004KT 330V040 CAVOK 25/15 Q1008 TEMPO VRB15G25KT 2500 TSRA BKN040CB
13:00
V
24 °C 10 km+ - Var Var 3 kt METAR LFSL 161100Z AUTO VRB03KT CAVOK 24/16 Q1008 TEMPO VRB15G25KT 2500 TSRA BKN040CB
12:30
V
23 °C 10 km+ - 310° 310° 4 kt METAR LFSL 161030Z AUTO 31004KT 280V340 CAVOK 23/16 Q1008 TEMPO VRB15G25KT 2500 TSRA BKN040CB
12:00
V
23 °C 10 km+ - 030° 030° 3 kt METAR LFSL 161000Z AUTO 03003KT 350V070 CAVOK 23/15 Q1008 TEMPO 4000 -SHRA BKN040TCU
11:30
V
22 °C 10 km+ - Var Var 3 kt METAR LFSL 160930Z AUTO VRB03KT 9999 ///TCU 22/15 Q1008 TEMPO 4000 -SHRA
11:00
V
22 °C 10 km+ - Var Var 3 kt METAR LFSL 160900Z AUTO VRB03KT CAVOK 22/14 Q1008 TEMPO 4000 -SHRA BKN040TCU
10:30
V
22 °C 10 km+ - Var Var 3 kt METAR LFSL 160830Z AUTO VRB03KT CAVOK 22/14 Q1008 NOSIG
10:00
V
21 °C 10 km+ - 120° 120° 6 kt METAR LFSL 160800Z AUTO 12006KT 110V180 CAVOK 21/14 Q1008 NOSIG
09:30
V
20 °C 10 km+ - 120° 120° 5 kt METAR LFSL 160730Z AUTO 12005KT CAVOK 20/14 Q1008 NOSIG
09:00
V
19 °C 10 km+ - 120° 120° 5 kt METAR LFSL 160700Z AUTO 12005KT CAVOK 19/15 Q1008 NOSIG
08:30
V
18 °C 10 km+ - 120° 120° 5 kt METAR LFSL 160630Z AUTO 12005KT CAVOK 18/15 Q1008 NOSIG
08:00
V
16 °C 10 km+ - 120° 120° 4 kt METAR LFSL 160600Z AUTO 12004KT CAVOK 16/15 Q1008 NOSIG
07:30
V
15 °C 10 km+ - 120° 120° 4 kt METAR LFSL 160530Z AUTO 12004KT CAVOK 15/14 Q1008 NOSIG
07:00
V
14 °C 10 km+ - 130° 130° 3 kt METAR LFSL 160500Z AUTO 13003KT CAVOK 14/14 Q1008 NOSIG
06:30
V
14 °C 10 km+ - 130° 130° 2 kt METAR LFSL 160430Z AUTO 13002KT CAVOK 14/13 Q1008 NOSIG
06:00
V
14 °C 9 km - Var Var 2 kt METAR LFSL 160400Z AUTO VRB02KT 9000 NSC 14/13 Q1008 NOSIG
05:30
V
14 °C 10 km+ - Var 000° 0 kt METAR LFSL 160330Z AUTO 00000KT CAVOK 14/13 Q1009 NOSIG
05:00
V
14 °C 10 km+ - Var 000° 0 kt METAR LFSL 160300Z AUTO 00000KT CAVOK 14/13 Q1009
04:30
V
14 °C 10 km+ - Var 000° 0 kt METAR LFSL 160230Z AUTO 00000KT CAVOK 14/13 Q1009
04:00
V
14 °C 10 km+ - Var 000° 0 kt METAR LFSL 160200Z AUTO 00000KT CAVOK 14/13 Q1009
03:30
V
14 °C 10 km+ - Var Var 1 kt METAR LFSL 160130Z AUTO VRB01KT CAVOK 14/13 Q1009
03:00
V
15 °C 10 km+ - Var 000° 0 kt METAR LFSL 160100Z AUTO 00000KT CAVOK 15/13 Q1009
02:30
V
15 °C 10 km+ - 120° 120° 2 kt METAR LFSL 160030Z AUTO 12002KT CAVOK 15/14 Q1010
02:00
V
15 °C 10 km+ - Var 000° 0 kt METAR LFSL 160000Z AUTO 00000KT CAVOK 15/14 Q1010
01:30
V
15 °C 10 km+ - Var 000° 0 kt METAR LFSL 152330Z AUTO 00000KT CAVOK 15/14 Q1010
01:00
V
16 °C 10 km+ - Var 000° 0 kt METAR LFSL 152300Z AUTO 00000KT CAVOK 16/14 Q1010
00:30
V
16 °C 10 km+ - Var 000° 0 kt METAR LFSL 152230Z AUTO 00000KT CAVOK 16/14 Q1010
00:00
V
16 °C 10 km+ - Var 000° 0 kt METAR LFSL 152200Z AUTO 00000KT CAVOK 16/15 Q1010

15. August 2022

Uhrzeit Code Wetter Temp. Sichtweite Wolkendecke Wind METAR/SPECI
23:30
V
17 °C 10 km+ - Var 000° 0 kt METAR LFSL 152130Z AUTO 00000KT CAVOK 17/15 Q1010
23:00
V
17 °C 10 km+ - Var 000° 0 kt METAR LFSL 152100Z AUTO 00000KT CAVOK 17/15 Q1010
22:30
V
18 °C 10 km+ - Var 000° 0 kt METAR LFSL 152030Z AUTO 00000KT CAVOK 18/15 Q1010
22:00
V
19 °C 10 km+ - Var 000° 0 kt METAR LFSL 152000Z AUTO 00000KT CAVOK 19/15 Q1010 NOSIG
21:30
V
21 °C 10 km+ - Var 000° 0 kt METAR LFSL 151930Z AUTO 00000KT CAVOK 21/15 Q1010 NOSIG
21:00
V
22 °C 10 km+ - 230° 230° 2 kt METAR LFSL 151900Z AUTO 23002KT CAVOK 22/16 Q1009 NOSIG
20:30
V
25 °C 10 km+ - Var Var 2 kt METAR LFSL 151830Z AUTO VRB02KT CAVOK 25/15 Q1009 NOSIG
20:00
V
25 °C 10 km+ - 230° 230° 3 kt METAR LFSL 151800Z AUTO 23003KT 180V280 CAVOK 25/14 Q1009 NOSIG
19:30
V
26 °C 10 km+ - Var Var 3 kt METAR LFSL 151730Z AUTO VRB03KT CAVOK 26/15 Q1009 NOSIG
19:00
V
26 °C 10 km+ - 240° 240° 3 kt METAR LFSL 151700Z AUTO 24003KT 120V290 CAVOK 26/15 Q1009 NOSIG
18:30
V
27 °C 10 km+ 4.800 ft Var Var 4 kt METAR LFSL 151630Z AUTO VRB04KT 9999 BKN048 BKN076 27/14 Q1009 NOSIG
18:00
V
26 °C 10 km+ 6.200 ft Var Var 3 kt METAR LFSL 151600Z AUTO VRB03KT 9999 SCT046 BKN062 BKN076 26/15 Q1009 NOSIG
17:30
V
26 °C 10 km+ - Var Var 2 kt METAR LFSL 151530Z AUTO VRB02KT CAVOK 26/15 Q1009 NOSIG
17:00
V
25 °C 10 km+ 7.600 ft 290° 290° 3 kt METAR LFSL 151500Z AUTO 29003KT 210V360 9999 SCT043 SCT062 OVC076 25/15 Q1010 NOSIG
16:30
V
27 °C 10 km+ 8.000 ft Var Var 3 kt METAR LFSL 151430Z AUTO VRB03KT 9999 FEW042 SCT066 BKN080 27/15 Q1010 NOSIG
16:00
V
25 °C 10 km+ 4.100 ft 240° 240° 5 kt METAR LFSL 151400Z AUTO 24005KT 170V310 9999 BKN041 BKN072 25/16 Q1010 NOSIG
15:30
V
25 °C 10 km+ 3.800 ft Var Var 5 kt METAR LFSL 151330Z AUTO VRB05KT 9999 BKN038 BKN076 25/16 Q1010 NOSIG
15:00
V
26 °C 10 km+ 3.800 ft Var Var 5 kt METAR LFSL 151300Z AUTO VRB05KT 9999 BKN038 BKN050 OVC066 26/15 Q1010 NOSIG
Ältere Daten

Wir und Dritte verfolgen dein Internetverhalten auf unserer Website mit Cookies. Wenn du fortfährst, gehen wir davon aus, dass du mit unserer Cookie-Richtlinie einverstanden bist. Mehr erfahren